Time;durP1;ratioP1;P1;durP2;ratioP2;P2;SDS_P1;SDS_P2;PMS_P1;PMS_P2;Temp;Humidity;BMP_temperature;BMP_pressure;BME280_temperature;BME280_humidity;BME280_pressure;Samples;Min_cycle;Max_cycle;Signal;HPM_P1;HPM_P2
2024/01/15 00:01:12;;;;;;;1.87;1.77;;;;;;;-2.79;100.00;-15931.00;5030975;28;20756;-67
2024/01/15 00:03:37;;;;;;;2.13;2.03;;;;;;;-3.23;100.00;-15611.84;5029743;28;20178;-70
2024/01/15 00:06:03;;;;;;;2.03;1.87;;;;;;;-3.00;100.00;-15615.19;5031107;28;20187;-71
2024/01/15 00:08:28;;;;;;;1.97;1.87;;;;;;;-3.43;100.00;-15608.78;5030680;28;20172;-68
2024/01/15 00:10:53;;;;;;;1.70;1.60;;;;;;;-3.16;100.00;-15925.16;5031134;28;20615;-69
2024/01/15 00:13:19;;;;;;;2.37;2.23;;;;;;;-3.62;100.00;-15605.88;5030817;28;20547;-67
2024/01/15 00:15:44;;;;;;;1.80;1.70;;;;;;;-3.67;100.00;-15605.19;5030439;28;20204;-69
2024/01/15 00:18:10;;;;;;;2.07;1.97;;;;;;;-3.71;100.00;-15604.50;5030741;28;20179;-69
2024/01/15 00:20:35;;;;;;;3.03;2.80;;;;;;;-3.34;100.00;-15610.09;5031067;28;20177;-71
2024/01/15 00:23:00;;;;;;;1.40;1.37;;;;;;;-3.69;100.00;-15916.94;5030235;28;20333;-67
2024/01/15 00:25:26;;;;;;;2.80;2.57;;;;;;;-3.48;100.00;-15920.09;5029582;28;20315;-69
2024/01/15 00:27:51;;;;;;;1.93;1.83;;;;;;;-3.82;100.00;-15914.88;5031033;28;20176;-70
2024/01/15 00:30:17;;;;;;;2.77;2.57;;;;;;;-3.85;100.00;-15914.41;5031038;28;20186;-69
2024/01/15 00:32:42;;;;;;;2.03;1.93;;;;;;;-3.64;100.00;-15917.72;5039935;28;20229;-64
2024/01/15 00:35:08;;;;;;;3.87;3.43;;;;;;;-3.86;100.00;-16226.09;5037112;28;20208;-69
2024/01/15 00:37:33;;;;;;;1.23;1.23;;;;;;;-3.79;100.00;-16227.31;5030951;28;20182;-67
2024/01/15 00:39:58;;;;;;;4.20;3.10;;;;;;;-3.90;100.00;-16225.53;5030501;28;20171;-70
2024/01/15 00:42:24;;;;;;;2.13;2.03;;;;;;;-3.49;100.00;-16544.16;5030705;28;20175;-65
2024/01/15 00:44:49;;;;;;;2.37;2.17;;;;;;;-3.48;100.00;-16544.34;5029978;28;20556;-71
2024/01/15 00:47:15;;;;;;;1.90;1.80;;;;;;;-3.78;100.00;-16539.34;5029993;28;20628;-71
2024/01/15 00:49:40;;;;;;;2.57;2.47;;;;;;;-3.45;100.00;-16544.84;5028789;28;20269;-72
2024/01/15 00:52:05;;;;;;;1.93;1.80;;;;;;;-3.67;100.00;-16541.28;5037969;28;20182;-65
2024/01/15 00:54:31;;;;;;;3.47;3.17;;;;;;;-3.45;100.00;-16544.91;5032641;28;20198;-69
2024/01/15 00:56:56;;;;;;;2.23;2.13;;;;;;;-3.48;100.00;-16856.41;5030933;28;20183;-66
2024/01/15 00:59:22;;;;;;;2.00;1.90;;;;;;;-3.80;100.00;-16539.09;5030550;28;20334;-70
2024/01/15 01:01:47;;;;;;;1.93;1.83;;;;;;;-3.86;100.00;-16538.00;5030564;28;20179;-69
2024/01/15 01:04:13;;;;;;;1.77;1.67;;;;;;;-3.94;100.00;-16536.75;5031110;28;20168;-66
2024/01/15 01:06:39;;;;;;;1.80;1.70;;;;;;;-3.94;100.00;-16536.75;5030677;28;20175;-67
2024/01/15 01:09:05;;;;;;;1.97;1.87;;;;;;;-3.67;100.00;-16541.28;5030896;28;20172;-69
2024/01/15 01:11:31;;;;;;;7.70;3.93;;;;;;;-3.91;100.00;-16537.25;5030435;28;20263;-67
2024/01/15 01:13:57;;;;;;;2.83;2.53;;;;;;;-3.81;100.00;-16538.84;5030374;28;20198;-66
2024/01/15 01:16:22;;;;;;;2.40;2.30;;;;;;;-4.07;100.00;-16534.53;5030524;28;20589;-67
2024/01/15 01:18:47;;;;;;;1.87;1.77;;;;;;;-3.61;100.00;-16542.31;5030738;28;20209;-70
2024/01/15 01:21:13;;;;;;;4.50;2.90;;;;;;;-3.56;100.00;-16855.19;5030444;28;20178;-70
2024/01/15 01:23:38;;;;;;;3.67;3.27;;;;;;;-3.51;100.00;-16855.88;5030257;28;20648;-71
2024/01/15 01:26:04;;;;;;;2.20;2.03;;;;;;;-3.60;100.00;-17166.47;5030231;28;20171;-70
2024/01/15 01:28:29;;;;;;;2.90;2.70;;;;;;;-3.64;100.00;-16853.78;5030575;28;20199;-70
2024/01/15 01:30:54;;;;;;;3.80;3.37;;;;;;;-3.82;100.00;-16538.75;5030522;28;20194;-68
2024/01/15 01:33:20;;;;;;;4.67;2.70;;;;;;;-4.24;100.00;-16531.75;5030387;28;20709;-69
2024/01/15 01:35:47;;;;;;;1.90;1.80;;;;;;;-4.01;100.00;-16223.72;5032462;28;20219;-68
2024/01/15 01:38:12;;;;;;;3.63;3.33;;;;;;;-4.36;100.00;-16218.00;5033994;28;20659;-70
2024/01/15 01:40:38;;;;;;;1.73;1.63;;;;;;;-4.41;100.00;-16217.25;5032662;28;20175;-70
2024/01/15 01:43:05;;;;;;;1.70;1.60;;;;;;;-4.09;100.00;-16222.41;5033914;28;20225;-69
2024/01/15 01:45:30;;;;;;;3.17;2.77;;;;;;;-4.50;100.00;-15904.25;5034005;28;20270;-69
2024/01/15 01:47:56;;;;;;;3.63;2.57;;;;;;;-4.52;100.00;-15592.28;5033963;28;20714;-67
2024/01/15 01:50:22;;;;;;;2.73;2.50;;;;;;;-4.55;100.00;-15903.38;5033918;28;20167;-68
2024/01/15 01:52:48;;;;;;;2.07;1.97;;;;;;;-4.52;100.00;-15903.94;5033721;28;20295;-70
2024/01/15 01:55:14;;;;;;;3.03;2.77;;;;;;;-4.44;100.00;-16216.75;5033444;28;20699;-69
2024/01/15 01:57:41;;;;;;;2.70;2.17;;;;;;;-4.63;100.00;-16525.25;5039947;28;20171;-66
2024/01/15 02:00:07;;;;;;;1.40;1.30;;;;;;;-4.74;100.00;-16523.38;5035332;28;20178;-69
2024/01/15 02:02:33;;;;;;;2.90;2.60;;;;;;;-4.76;100.00;-17145.78;5041761;28;20191;-70
2024/01/15 02:04:59;;;;;;;1.73;1.63;;;;;;;-4.43;100.00;-17463.22;5033465;28;20274;-67
2024/01/15 02:07:24;;;;;;;2.57;2.37;;;;;;;-4.72;100.00;-17146.47;5033731;28;20254;-68
2024/01/15 02:09:50;;;;;;;2.00;1.90;;;;;;;-4.34;100.00;-17464.88;5033886;28;20225;-67
2024/01/15 02:12:15;;;;;;;2.57;2.37;;;;;;;-4.37;100.00;-17152.75;5032965;28;20179;-68
2024/01/15 02:14:41;;;;;;;1.30;1.30;;;;;;;-4.40;100.00;-17152.22;5033194;28;20214;-67
2024/01/15 02:17:06;;;;;;;1.60;1.50;;;;;;;-4.84;100.00;-17144.41;5033458;28;20314;-71
2024/01/15 02:19:32;;;;;;;3.53;2.23;;;;;;;-4.31;100.00;-16842.13;5033686;28;20172;-67
2024/01/15 02:21:57;;;;;;;1.63;1.53;;;;;;;-4.59;100.00;-16837.34;5033509;28;20168;-66
2024/01/15 02:24:23;;;;;;;2.77;2.53;;;;;;;-4.64;100.00;-16836.56;5033272;28;20599;-67
2024/01/15 02:26:49;;;;;;;2.17;2.07;;;;;;;-4.66;100.00;-16836.13;5032843;28;20179;-71
2024/01/15 02:29:15;;;;;;;4.03;3.73;;;;;;;-4.45;100.00;-16839.78;5033378;28;20179;-68
2024/01/15 02:31:40;;;;;;;1.67;1.57;;;;;;;-4.61;100.00;-16525.59;5033254;28;20552;-70
2024/01/15 02:34:06;;;;;;;2.17;2.00;;;;;;;-4.79;100.00;-15588.16;5033013;28;20637;-71
2024/01/15 02:36:31;;;;;;;3.53;3.33;;;;;;;-4.47;100.00;-15593.06;5033285;28;20284;-69
2024/01/15 02:38:57;;;;;;;1.90;1.80;;;;;;;-4.74;100.00;-15588.84;5032900;28;20234;-71
2024/01/15 02:41:22;;;;;;;2.47;2.27;;;;;;;-4.88;100.00;-15898.22;5032749;28;20182;-67
2024/01/15 02:43:48;;;;;;;2.73;2.53;;;;;;;-4.60;100.00;-15902.59;5032856;28;20181;-68
2024/01/15 02:46:13;;;;;;;2.60;2.40;;;;;;;-4.65;100.00;-15901.88;5032373;28;20191;-67
2024/01/15 02:48:39;;;;;;;1.67;1.57;;;;;;;-4.72;100.00;-15900.69;5032523;28;20568;-68
2024/01/15 02:51:04;;;;;;;3.80;2.33;;;;;;;-4.79;100.00;-15899.56;5032597;28;20185;-70
2024/01/15 02:53:29;;;;;;;2.90;2.67;;;;;;;-4.74;100.00;-15900.44;5032667;28;20233;-71
2024/01/15 02:55:55;;;;;;;2.40;2.30;;;;;;;-5.04;100.00;-15895.66;5032300;28;20207;-67
2024/01/15 02:58:21;;;;;;;2.70;2.50;;;;;;;-4.79;100.00;-15899.56;5032539;28;20175;-65
2024/01/15 03:00:46;;;;;;;2.37;2.17;;;;;;;-4.77;100.00;-16211.44;5032420;28;20730;-68
2024/01/15 03:03:12;;;;;;;2.17;2.07;;;;;;;-4.77;100.00;-16522.88;5039827;28;20183;-64
2024/01/15 03:05:38;;;;;;;2.30;2.20;;;;;;;-4.83;100.00;-16210.44;5035224;28;20171;-71
2024/01/15 03:08:03;;;;;;;2.70;2.07;;;;;;;-4.82;100.00;-15899.16;5032578;28;20199;-68
2024/01/15 03:10:29;;;;;;;3.63;3.33;;;;;;;-4.56;100.00;-15903.22;5032388;28;20262;-69
2024/01/15 03:12:54;;;;;;;2.60;2.50;;;;;;;-4.62;100.00;-15902.25;5031940;28;20176;-70
2024/01/15 03:15:20;;;;;;;2.10;2.00;;;;;;;-4.67;100.00;-15901.56;5032281;28;20199;-72
2024/01/15 03:17:45;;;;;;;2.43;2.33;;;;;;;-5.04;100.00;-16207.00;5032286;28;20179;-69
2024/01/15 03:20:11;;;;;;;1.93;1.83;;;;;;;-5.07;100.00;-16206.59;5031924;28;20240;-69
2024/01/15 03:22:36;;;;;;;3.23;2.73;;;;;;;-5.06;100.00;-16206.69;5032017;28;20201;-68
2024/01/15 03:25:02;;;;;;;2.43;2.33;;;;;;;-4.72;100.00;-16523.63;5031872;28;20584;-66
2024/01/15 03:27:28;;;;;;;4.07;3.73;;;;;;;-4.97;100.00;-16208.16;5031983;28;20183;-70
2024/01/15 03:29:53;;;;;;;2.20;2.10;;;;;;;-5.07;100.00;-16206.50;5032005;28;20182;-67
2024/01/15 03:32:19;;;;;;;1.80;1.70;;;;;;;-4.99;100.00;-16207.81;5031704;28;20219;-69
2024/01/15 03:34:45;;;;;;;2.47;2.37;;;;;;;-4.73;100.00;-16523.47;5031810;28;20196;-66
2024/01/15 03:37:11;;;;;;;2.43;2.33;;;;;;;-5.25;100.00;-16203.56;5030536;28;20277;-69
2024/01/15 03:39:36;;;;;;;2.33;2.13;;;;;;;-4.69;100.00;-16524.22;5031338;28;20270;-64
2024/01/15 03:42:02;;;;;;;2.50;2.30;;;;;;;-4.62;100.00;-16525.34;5031749;28;20183;-70
2024/01/15 03:44:27;;;;;;;3.63;2.33;;;;;;;-4.61;100.00;-15902.50;5031813;28;20545;-70
2024/01/15 03:46:53;;;;;;;3.53;3.23;;;;;;;-4.67;100.00;-15901.56;5031114;28;20171;-68
2024/01/15 03:49:18;;;;;;;6.43;3.17;;;;;;;-4.89;100.00;-15898.06;5031522;28;20509;-69
2024/01/15 03:51:44;;;;;;;1.97;1.87;;;;;;;-4.90;100.00;-15897.97;5031853;28;20172;-67
2024/01/15 03:54:10;;;;;;;4.80;3.10;;;;;;;-4.84;100.00;-16210.19;5031096;28;20192;-66
2024/01/15 03:56:35;;;;;;;2.43;2.23;;;;;;;-5.03;100.00;-16207.25;5031074;28;20528;-69
2024/01/15 03:59:01;;;;;;;2.10;1.90;;;;;;;-4.74;100.00;-16523.31;5030634;28;20202;-70
2024/01/15 04:01:26;;;;;;;2.30;1.80;;;;;;;-4.95;100.00;-16519.84;5031119;28;20199;-72
2024/01/15 04:03:51;;;;;;;2.33;2.13;;;;;;;-4.96;100.00;-16519.66;5030976;28;20646;-71
2024/01/15 04:06:17;;;;;;;1.87;1.77;;;;;;;-5.00;100.00;-16207.75;5031330;28;20262;-71
2024/01/15 04:08:42;;;;;;;1.57;1.47;;;;;;;-4.91;100.00;-16520.50;5040500;28;20233;-69
2024/01/15 04:11:07;;;;;;;2.80;2.63;;;;;;;-4.82;100.00;-16210.53;5029535;28;20658;-68
2024/01/15 04:13:33;;;;;;;1.60;1.50;;;;;;;-4.91;100.00;-16209.13;5029745;28;20491;-68
2024/01/15 04:16:00;;;;;;;1.70;1.60;;;;;;;-4.63;100.00;-16213.72;5027719;28;20218;-70
2024/01/15 04:18:25;;;;;;;4.30;2.47;;;;;;;-4.67;100.00;-16213.06;5029148;28;20197;-71
2024/01/15 04:20:51;;;;;;;2.20;2.00;;;;;;;-5.05;100.00;-15895.59;5029484;28;20172;-66
2024/01/15 04:23:16;;;;;;;2.00;1.90;;;;;;;-4.83;100.00;-15587.47;5028418;28;20274;-67
2024/01/15 04:25:42;;;;;;;2.87;2.67;;;;;;;-4.82;100.00;-15587.69;5036877;28;20195;-67
2024/01/15 04:28:08;;;;;;;1.60;1.50;;;;;;;-4.85;100.00;-15898.63;5030994;28;20183;-70
2024/01/15 04:30:34;;;;;;;3.57;3.33;;;;;;;-5.05;100.00;-15895.59;5030972;28;20206;-68
2024/01/15 04:32:59;;;;;;;1.87;1.77;;;;;;;-5.09;100.00;-15894.97;5030318;28;20655;-69
2024/01/15 04:35:25;;;;;;;2.07;1.97;;;;;;;-5.32;100.00;-15891.31;5030848;28;20213;-67
2024/01/15 04:37:50;;;;;;;4.50;3.13;;;;;;;-5.26;100.00;-16203.38;5030837;28;20365;-66
2024/01/15 04:40:15;;;;;;;2.20;2.10;;;;;;;-5.01;100.00;-16207.50;5030583;28;20619;-69
2024/01/15 04:42:41;;;;;;;2.90;2.60;;;;;;;-5.11;100.00;-16205.84;5030974;28;20179;-67
2024/01/15 04:45:06;;;;;;;1.43;1.33;;;;;;;-5.06;100.00;-16518.06;5031023;28;20183;-69
2024/01/15 04:47:32;;;;;;;1.70;1.60;;;;;;;-5.03;100.00;-16518.56;5029320;28;20187;-72
2024/01/15 04:49:57;;;;;;;1.93;1.83;;;;;;;-4.94;100.00;-16208.66;5030958;28;20238;-71
2024/01/15 04:52:23;;;;;;;2.17;2.07;;;;;;;-4.95;100.00;-15897.09;5030687;28;20211;-67
2024/01/15 04:54:49;;;;;;;2.47;2.27;;;;;;;-4.96;100.00;-16208.31;5030438;28;20228;-70
2024/01/15 04:57:15;;;;;;;2.00;1.90;;;;;;;-5.42;100.00;-16200.94;5030479;28;20178;-67
2024/01/15 04:59:40;;;;;;;3.53;2.73;;;;;;;-5.18;100.00;-15893.44;5029397;28;20697;-70
2024/01/15 05:02:07;;;;;;;2.83;2.63;;;;;;;-4.99;100.00;-16207.81;5029715;28;20179;-69
2024/01/15 05:04:32;;;;;;;1.77;1.67;;;;;;;-5.07;100.00;-16206.59;5030872;28;20170;-67
2024/01/15 05:06:58;;;;;;;2.63;2.43;;;;;;;-5.25;100.00;-16203.56;5030698;28;20262;-71
2024/01/15 05:09:23;;;;;;;3.17;2.37;;;;;;;-5.13;100.00;-15894.25;5032403;28;20225;-68
2024/01/15 05:11:49;;;;;;;1.47;1.37;;;;;;;-5.48;100.00;-16199.94;5043558;28;20179;-66
2024/01/15 05:14:14;;;;;;;1.90;1.80;;;;;;;-5.30;100.00;-16202.72;5034720;28;20349;-68
2024/01/15 05:16:46;;;;;;;2.70;2.20;;;;;;;-5.18;100.00;-16204.72;5034431;28;20183;-67
2024/01/15 05:19:11;;;;;;;4.33;2.47;;;;;;;-5.48;100.00;-16511.03;5034284;28;20685;-67
2024/01/15 05:21:37;;;;;;;1.53;1.43;;;;;;;-5.04;100.00;-16518.31;5034552;28;20257;-67
2024/01/15 05:24:02;;;;;;;2.07;1.97;;;;;;;-5.01;100.00;-16830.09;5033692;28;20262;-71
2024/01/15 05:26:28;;;;;;;2.60;2.10;;;;;;;-5.09;100.00;-16828.78;5033916;28;20171;-72
2024/01/15 05:28:53;;;;;;;6.20;3.23;;;;;;;-4.84;100.00;-16521.69;5034476;28;20185;-71
2024/01/15 05:31:18;;;;;;;2.80;2.60;;;;;;;-5.07;100.00;-16206.50;5033977;28;20204;-71
2024/01/15 05:33:44;;;;;;;4.73;1.83;;;;;;;-4.86;100.00;-15898.44;5033953;28;20226;-69
2024/01/15 05:36:09;;;;;;;2.17;2.07;;;;;;;-4.70;100.00;-15901.06;5034103;28;20240;-69
2024/01/15 05:38:35;;;;;;;1.60;1.50;;;;;;;-4.70;100.00;-15589.53;5033663;28;20210;-72
2024/01/15 05:41:00;;;;;;;1.40;1.30;;;;;;;-5.08;100.00;-14960.91;5034189;28;20174;-65
2024/01/15 05:43:25;;;;;;;2.77;2.57;;;;;;;-4.84;100.00;-15275.88;5033838;28;20632;-69
2024/01/15 05:45:51;;;;;;;1.53;1.43;;;;;;;-5.03;100.00;-14961.72;5033948;28;20622;-66
2024/01/15 05:48:16;;;;;;;2.30;2.20;;;;;;;-5.13;100.00;-14960.28;5033521;28;20177;-67
2024/01/15 05:50:42;;;;;;;2.43;2.23;;;;;;;-4.94;100.00;-14651.41;5033831;28;20183;-69
2024/01/15 05:53:07;;;;;;;2.13;1.93;;;;;;;-4.94;100.00;-14339.88;5033294;28;20684;-68
2024/01/15 05:55:32;;;;;;;1.90;1.80;;;;;;;-5.06;100.00;-14338.34;5033580;28;20203;-69
2024/01/15 05:57:58;;;;;;;1.63;1.53;;;;;;;-4.95;100.00;-14339.81;5033784;28;20186;-69
2024/01/15 06:00:23;;;;;;;1.70;1.60;;;;;;;-5.27;100.00;-14335.56;5033439;28;20267;-71
2024/01/15 06:02:48;;;;;;;1.67;1.57;;;;;;;-5.21;100.00;-14024.94;5033461;28;20233;-67
2024/01/15 06:05:14;;;;;;;1.83;1.73;;;;;;;-5.47;100.00;-14021.66;5033365;28;20281;-70
2024/01/15 06:07:39;;;;;;;3.67;2.83;;;;;;;-5.16;100.00;-14025.56;5033488;28;20651;-67
2024/01/15 06:10:05;;;;;;;2.13;2.03;;;;;;;-5.32;100.00;-14023.47;5033648;28;20234;-68
2024/01/15 06:12:32;;;;;;;2.03;1.93;;;;;;;-4.98;100.00;-14027.88;5033668;28;20176;-69
2024/01/15 06:14:57;;;;;;;2.43;2.23;;;;;;;-5.25;100.00;-13712.97;5033259;28;20203;-68
2024/01/15 06:17:23;;;;;;;2.33;2.23;;;;;;;-4.99;100.00;-14027.69;5042874;28;20186;-67
2024/01/15 06:19:48;;;;;;;1.87;1.77;;;;;;;-5.28;100.00;-14335.44;5032877;28;20179;-69
2024/01/15 06:22:13;;;;;;;1.97;1.87;;;;;;;-5.21;100.00;-14336.28;5032503;28;20265;-68
2024/01/15 06:24:39;;;;;;;1.93;1.83;;;;;;;-5.16;100.00;-14336.97;5033083;28;20193;-70
2024/01/15 06:27:04;;;;;;;2.03;1.90;;;;;;;-5.13;100.00;-14648.88;5032807;28;20174;-70
2024/01/15 06:29:31;;;;;;;1.50;1.40;;;;;;;-4.95;100.00;-14651.28;5033207;28;20245;-67
2024/01/15 06:31:57;;;;;;;1.63;1.53;;;;;;;-4.75;100.00;-14654.03;5032838;28;20178;-68
2024/01/15 06:34:22;;;;;;;2.93;2.67;;;;;;;-4.72;100.00;-14342.81;5032894;28;20199;-68
2024/01/15 06:36:48;;;;;;;2.17;2.03;;;;;;;-4.66;100.00;-14343.53;5033172;28;20658;-68
2024/01/15 06:39:13;;;;;;;5.90;2.80;;;;;;;-4.92;100.00;-14340.16;5032761;28;20183;-68
2024/01/15 06:41:43;;;;;;;4.63;2.53;;;;;;;-4.87;100.00;-14029.22;5031454;28;20258;-68
2024/01/15 06:44:10;;;;;;;1.70;1.60;;;;;;;-4.82;100.00;-14029.84;5032536;28;20167;-68
2024/01/15 06:46:35;;;;;;;1.80;1.70;;;;;;;-4.77;100.00;-14030.50;5032416;28;20645;-70
2024/01/15 06:49:01;;;;;;;2.20;2.00;;;;;;;-4.48;100.00;-13722.31;5032160;28;20191;-68
2024/01/15 06:51:26;;;;;;;2.90;2.70;;;;;;;-4.81;100.00;-14029.97;5031904;28;20241;-68
2024/01/15 06:53:52;;;;;;;1.93;1.83;;;;;;;-4.73;100.00;-14030.94;5031999;28;20251;-71
2024/01/15 06:56:17;;;;;;;3.47;1.87;;;;;;;-4.44;100.00;-14034.66;5032041;28;20183;-72
2024/01/15 06:58:42;;;;;;;1.57;1.47;;;;;;;-4.25;100.00;-14037.00;5032100;28;20281;-71
2024/01/15 07:01:08;;;;;;;1.93;1.83;;;;;;;-4.27;100.00;-14348.72;5032460;28;20649;-68
2024/01/15 07:03:33;;;;;;;1.53;1.43;;;;;;;-4.46;100.00;-14034.38;5032138;28;20185;-66
2024/01/15 07:05:59;;;;;;;1.63;1.53;;;;;;;-4.06;100.00;-14039.41;5032173;28;20206;-67
2024/01/15 07:08:24;;;;;;;2.00;1.90;;;;;;;-4.02;100.00;-13727.94;5032155;28;20183;-68
2024/01/15 07:10:49;;;;;;;1.87;1.77;;;;;;;-4.14;100.00;-13414.38;5031801;28;20202;-70
2024/01/15 07:13:15;;;;;;;1.80;1.70;;;;;;;-3.88;100.00;-13417.34;5031121;28;20527;-70
2024/01/15 07:15:40;;;;;;;1.73;1.63;;;;;;;-4.21;100.00;-13413.59;5031293;28;20215;-66
2024/01/15 07:18:06;;;;;;;3.03;1.83;;;;;;;-3.81;100.00;-13730.44;5031173;28;20620;-69
2024/01/15 07:20:31;;;;;;;2.93;2.73;;;;;;;-4.08;100.00;-14039.16;5031624;28;20326;-65
2024/01/15 07:22:57;;;;;;;2.03;1.83;;;;;;;-3.91;100.00;-14041.34;5040762;28;20255;-69
2024/01/15 07:25:22;;;;;;;2.50;2.07;;;;;;;-3.63;100.00;-14044.84;5031734;28;20196;-72
2024/01/15 07:27:48;;;;;;;2.70;1.93;;;;;;;-3.56;100.00;-13733.47;5031974;28;20165;-68
2024/01/15 07:30:13;;;;;;;3.73;2.33;;;;;;;-3.40;100.00;-12797.97;5031437;28;20180;-65
2024/01/15 07:32:40;;;;;;;2.77;2.37;;;;;;;-3.64;100.00;-12483.16;5031402;28;20754;-70
2024/01/15 07:35:06;;;;;;;1.87;1.77;;;;;;;-3.34;100.00;-12798.63;5031247;28;20684;-69
2024/01/15 07:37:31;;;;;;;3.00;1.97;;;;;;;-2.97;100.00;-12802.53;5031189;28;20199;-68
2024/01/15 07:39:57;;;;;;;1.83;1.73;;;;;;;-2.65;100.00;-11867.06;5031510;28;20172;-66
2024/01/15 07:42:22;;;;;;;3.00;2.17;;;;;;;-2.51;100.00;-8423.13;5031651;28;20185;-68
2024/01/15 07:44:48;;;;;;;2.27;2.17;;;;;;;-2.46;100.00;-9676.63;5030861;28;20187;-71
2024/01/15 07:47:13;;;;;;;3.17;2.83;;;;;;;-2.15;100.00;-8424.28;5031312;28;20179;-69
2024/01/15 07:49:38;;;;;;;1.60;1.50;;;;;;;-1.83;100.00;-7797.84;5030825;28;20255;-67
2024/01/15 07:52:07;;;;;;;2.17;2.07;;;;;;;-2.13;100.00;-6542.44;5031318;28;20278;-71
2024/01/15 07:54:33;;;;;;;3.17;2.90;;;;;;;-1.75;100.00;-6856.41;5031249;28;20268;-67
2024/01/15 07:57:05;;;;;;;3.57;2.77;;;;;;;-1.93;100.00;-7170.09;5031079;28;20668;-67
2024/01/15 07:59:31;;;;;;;2.57;2.37;;;;;;;-1.63;100.00;-2772.25;5031208;28;20229;-67
2024/01/15 08:01:59;;;;;;;2.73;2.33;;;;;;;-1.24;100.00;-4027.94;5031031;28;20243;-67
2024/01/15 08:04:24;;;;;;;7.50;2.23;;;;;;;-1.07;100.00;-4656.22;5030214;28;20495;-70
2024/01/15 08:06:50;;;;;;;2.57;2.37;;;;;;;-1.25;100.00;-4971.16;5031060;28;20183;-73
2024/01/15 08:09:15;;;;;;;2.10;2.00;;;;;;;-0.84;100.00;-6228.13;5031108;28;20176;-67
2024/01/15 08:11:41;;;;;;;3.63;2.67;;;;;;;-0.79;100.00;-2767.16;5030751;28;20552;-69
2024/01/15 08:14:07;;;;;;;1.90;1.80;;;;;;;-0.62;100.00;-876.16;5030532;28;20265;-66
2024/01/15 08:16:33;;;;;;;1.70;1.60;;;;;;;-0.69;100.00;-1821.81;5030468;28;20176;-66
2024/01/15 08:18:58;;;;;;;1.20;1.13;;;;;;;-0.21;100.00;-1818.09;5030446;28;20624;-66
2024/01/15 08:21:24;;;;;;;2.50;1.80;;;;;;;-0.08;100.00;2915.28;5030752;28;20183;-66
2024/01/15 08:23:49;;;;;;;2.63;2.43;;;;;;;-0.19;100.00;2913.47;5030480;28;20254;-73
2024/01/15 08:26:15;;;;;;;2.40;2.20;;;;;;;-0.34;100.00;1964.53;5031066;28;20190;-67
2024/01/15 08:28:40;;;;;;;2.43;2.23;;;;;;;0.28;100.00;394.53;5039746;28;20190;-68
2024/01/15 08:31:05;;;;;;;3.50;2.60;;;;;;;0.23;100.00;3867.84;5030725;28;20235;-66
2024/01/15 08:33:31;;;;;;;2.63;1.97;;;;;;;0.27;100.00;7029.88;5030105;28;20231;-70
2024/01/15 08:35:56;;;;;;;1.90;1.80;;;;;;;0.76;100.00;5458.47;5030422;28;20296;-70
2024/01/15 08:38:21;;;;;;;1.67;1.57;;;;;;;0.71;100.00;7672.91;5030464;28;20183;-67
2024/01/15 08:40:49;;;;;;;4.07;2.30;;;;;;;0.86;100.00;7676.34;5030382;28;20176;-67
2024/01/15 08:43:14;;;;;;;2.30;1.60;;;;;;;0.63;100.00;11154.84;5030414;28;20202;-68
2024/01/15 08:45:39;;;;;;;1.87;1.77;;;;;;;1.04;100.00;13387.16;5030389;28;20276;-68
2024/01/15 08:48:05;;;;;;;1.90;1.80;;;;;;;1.26;100.00;15616.97;5030471;28;20581;-67
2024/01/15 08:50:32;;;;;;;3.40;2.70;;;;;;;1.13;100.00;21015.38;5030166;28;20221;-69
2024/01/15 08:52:59;;;;;;;1.70;1.60;;;;;;;1.35;100.00;28989.75;5029291;28;20622;-71
2024/01/15 08:55:24;;;;;;;2.33;1.93;;;;;;;1.59;100.00;35391.88;5030048;28;20528;-66
2024/01/15 08:57:50;;;;;;;2.40;2.20;;;;;;;1.42;100.00;34420.94;5030430;28;20179;-71
2024/01/15 09:00:17;;;;;;;1.80;1.70;;;;;;;1.41;100.00;35698.53;5030712;28;20183;-68
2024/01/15 09:02:43;;;;;;;1.60;1.50;;;;;;;1.32;100.00;33775.91;5045573;28;20188;-71
2024/01/15 09:05:09;;;;;;;3.00;1.67;;;;;;;1.02;100.00;26420.88;5030036;28;20585;-69
2024/01/15 09:07:34;;;;;;;3.53;2.47;;;;;;;1.19;100.00;25156.22;5030288;28;20174;-71
2024/01/15 09:10:00;;;;;;;1.90;1.77;;;;;;;1.38;100.00;24847.41;5030329;28;20233;-67
2024/01/15 09:12:26;;;;;;;2.30;1.97;;;;;;;1.52;100.00;28361.50;5030327;28;20229;-68
2024/01/15 09:14:53;;;;;;;1.77;1.67;;;;;;;1.83;100.00;28060.44;5030307;28;20282;-68
2024/01/15 09:17:21;;;;;;;4.67;2.83;;;;;;;1.87;100.00;31894.34;5029861;28;20643;-66
2024/01/15 09:19:47;;;;;;;2.10;1.93;;;;;;;1.84;100.00;32531.81;5029865;28;20233;-67
2024/01/15 09:22:14;;;;;;;3.07;2.43;;;;;;;1.96;100.00;36056.94;5029815;28;20560;-67
2024/01/15 09:24:41;;;;;;;2.03;1.93;;;;;;;2.01;100.00;40618.72;5029907;28;20176;-69
2024/01/15 09:27:07;;;;;;;3.10;2.60;;;;;;;1.75;100.00;37321.97;5029864;28;20666;-69
2024/01/15 09:29:32;;;;;;;2.40;2.20;;;;;;;1.96;100.00;35097.22;5029860;28;20159;-72
2024/01/15 09:31:58;;;;;;;2.97;2.37;;;;;;;2.03;100.00;33503.00;5032981;28;20151;-65
2024/01/15 09:34:23;;;;;;;2.37;1.97;;;;;;;1.91;100.00;30299.66;5035320;28;20199;-71
2024/01/15 09:36:49;;;;;;;5.13;3.40;;;;;;;2.32;100.00;32243.03;5029797;28;20175;-71
2024/01/15 09:39:15;;;;;;;2.27;1.80;;;;;;;2.28;100.00;36719.69;5030131;28;20202;-72
2024/01/15 09:41:41;;;;;;;4.33;3.13;;;;;;;2.65;100.00;41651.28;5030183;28;20576;-71
2024/01/15 09:44:08;;;;;;;1.97;1.87;;;;;;;2.37;100.00;39814.84;5029754;28;20175;-71
2024/01/15 09:46:34;;;;;;;5.23;3.93;;;;;;;2.79;100.00;36436.13;5030263;28;20209;-69
2024/01/15 09:49:01;;;;;;;2.13;2.03;;;;;;;2.66;100.00;37067.59;5030144;28;20217;-70
2024/01/15 09:51:30;;;;;;;3.43;2.63;;;;;;;2.63;100.00;41837.69;5030512;28;20181;-70
2024/01/15 09:53:57;;;;;;;2.43;2.23;;;;;;;2.85;100.00;46667.72;5029905;28;20167;-72
2024/01/15 09:56:23;;;;;;;3.50;3.17;;;;;;;2.55;100.00;51270.94;5031529;28;20556;-67
2024/01/15 09:58:53;;;;;;;4.13;2.97;;;;;;;2.54;100.00;51950.69;5032836;28;20171;-69
2024/01/15 10:01:20;;;;;;;4.70;2.27;;;;;;;2.63;100.00;50157.28;5033108;28;20172;-73
2024/01/15 10:03:46;;;;;;;4.10;3.30;;;;;;;2.75;100.00;50027.44;5032728;28;20182;-70
2024/01/15 10:06:18;;;;;;;4.67;2.73;;;;;;;2.88;100.00;50090.50;5032686;28;20179;-68
2024/01/15 10:08:49;;;;;;;2.73;2.47;;;;;;;3.06;100.00;52715.75;5032667;28;20167;-71
2024/01/15 10:11:14;;;;;;;2.50;2.40;;;;;;;3.18;100.00;52976.38;5032872;28;20194;-71
2024/01/15 10:13:40;;;;;;;2.60;2.37;;;;;;;3.23;100.00;53611.31;5032382;28;20620;-67
2024/01/15 10:16:06;;;;;;;2.97;2.77;;;;;;;3.28;100.00;55948.97;5032634;28;20255;-69
2024/01/15 10:18:32;;;;;;;4.23;2.83;;;;;;;2.88;100.00;56264.69;5032537;28;20182;-67
2024/01/15 10:20:58;;;;;;;2.73;2.03;;;;;;;3.23;100.00;56084.81;5033254;28;20167;-71
2024/01/15 10:23:24;;;;;;;3.00;2.70;;;;;;;3.26;100.00;55422.25;5033089;28;20254;-69
2024/01/15 10:25:51;;;;;;;1.60;1.50;;;;;;;3.42;100.00;55940.41;5032865;28;20258;-70
2024/01/15 10:28:16;;;;;;;4.70;4.00;;;;;;;3.19;100.00;56060.47;5033031;28;20630;-67
2024/01/15 10:30:41;;;;;;;2.57;2.37;;;;;;;3.71;100.00;56069.09;5033426;28;20171;-72
2024/01/15 10:33:07;;;;;;;3.30;2.77;;;;;;;3.42;100.00;56109.78;5032768;28;20655;-71
2024/01/15 10:35:34;;;;;;;2.57;2.37;;;;;;;3.87;100.00;55576.38;5032583;28;20199;-72
2024/01/15 10:38:02;;;;;;;3.07;2.77;;;;;;;4.09;100.00;56022.09;5031804;28;20176;-70
2024/01/15 10:40:29;;;;;;;3.80;3.30;;;;;;;4.18;100.00;56668.06;5043254;28;20195;-67
2024/01/15 10:42:54;;;;;;;3.43;3.13;;;;;;;4.20;100.00;57409.88;5033800;28;20171;-72
2024/01/15 10:45:20;;;;;;;3.37;2.47;;;;;;;4.35;100.00;57519.38;5032716;28;20171;-64
2024/01/15 10:47:46;;;;;;;3.47;2.93;;;;;;;4.47;100.00;58117.78;5032921;28;20654;-73
2024/01/15 10:50:12;;;;;;;2.17;2.03;;;;;;;4.89;100.00;58633.00;5032867;28;20172;-74
2024/01/15 10:52:40;;;;;;;5.97;4.07;;;;;;;5.07;100.00;59072.53;5033193;28;20182;-67
2024/01/15 10:55:08;;;;;;;2.50;2.30;;;;;;;5.36;100.00;59767.00;5047895;28;20570;-72
2024/01/15 10:57:34;;;;;;;2.57;2.37;;;;;;;5.33;100.00;59819.91;5032867;28;20171;-71
2024/01/15 11:00:03;;;;;;;2.70;2.57;;;;;;;5.54;100.00;59956.06;5032749;28;20301;-72
2024/01/15 11:02:29;;;;;;;2.87;2.60;;;;;;;5.47;100.00;59910.28;5032663;28;20179;-70
2024/01/15 11:04:54;;;;;;;2.33;2.17;;;;;;;5.81;100.00;60033.72;5032492;28;20175;-66
2024/01/15 11:07:22;;;;;;;2.43;2.23;;;;;;;5.51;100.00;60046.97;5032320;28;20160;-71
2024/01/15 11:09:48;;;;;;;3.50;3.20;;;;;;;5.78;100.00;60101.84;5032239;28;20175;-72
2024/01/15 11:12:15;;;;;;;5.87;4.03;;;;;;;5.49;100.00;60084.72;5031118;28;20246;-70
2024/01/15 11:14:45;;;;;;;2.67;2.47;;;;;;;5.57;100.00;60187.31;5031747;28;20270;-70